Time;durP1;ratioP1;P1;durP2;ratioP2;P2;SDS_P1;SDS_P2;PMS_P1;PMS_P2;Temp;Humidity;BMP_temperature;BMP_pressure;BME280_temperature;BME280_humidity;BME280_pressure;Samples;Min_cycle;Max_cycle;Signal;HPM_P1;HPM_P2
2022/12/15 00:40:09;;;;;;;52.20;27.30;;;;;;;-2.67;75.26;97622.23;103397;1299;97973;-66
2022/12/15 00:42:37;;;;;;;56.30;29.10;;;;;;;-2.70;75.02;97610.07;103481;1291;111820;-67
2022/12/15 00:45:09;;;;;;;50.30;25.90;;;;;;;-2.74;75.20;97614.04;103432;1292;97872;-66
2022/12/15 00:47:37;;;;;;;53.40;29.80;;;;;;;-2.75;75.34;97617.38;103328;1298;108015;-65
2022/12/15 01:20:59;;;;;;;33.70;15.70;;;;;;;-2.13;75.79;97630.00;103506;1297;96979;-67
2022/12/15 01:23:36;;;;;;;31.90;15.20;;;;;;;-2.06;75.81;97634.90;103511;1291;111994;-67
2022/12/15 01:26:08;;;;;;;29.40;13.70;;;;;;;-1.98;76.13;97640.45;103510;1298;97774;-67
2022/12/15 01:28:36;;;;;;;28.10;13.60;;;;;;;-1.89;76.05;97649.60;103487;1299;108123;-67
2022/12/15 01:31:15;;;;;;;27.50;12.50;;;;;;;-1.80;76.08;97645.70;103293;1298;98677;-66
2022/12/15 01:33:43;;;;;;;27.00;12.10;;;;;;;-1.70;76.07;97651.36;103509;1297;98022;-67
2022/12/15 01:36:11;;;;;;;27.80;11.50;;;;;;;-1.59;75.85;97650.52;103505;1297;111733;-67
2022/12/15 01:38:39;;;;;;;25.30;11.40;;;;;;;-1.49;75.98;97654.94;103493;1298;96264;-66
2022/12/15 01:41:14;;;;;;;26.70;11.00;;;;;;;-1.39;76.06;97659.15;103481;1292;108214;-66
2022/12/15 01:43:42;;;;;;;26.00;10.50;;;;;;;-1.30;75.93;97661.38;103530;1291;95615;-66
2022/12/15 01:46:20;;;;;;;25.30;10.70;;;;;;;-1.23;76.02;97662.42;103481;1299;97899;-68
2022/12/15 01:49:11;;;;;;;26.10;12.00;;;;;;;-1.16;75.88;97667.48;103344;1294;111134;-67
2022/12/15 01:51:51;;;;;;;22.80;10.90;;;;;;;-1.08;75.85;97670.95;103486;1298;96098;-67
2022/12/15 01:54:26;;;;;;;25.40;11.50;;;;;;;-1.04;75.90;97667.08;103472;1298;107077;-65
2022/12/15 01:57:02;;;;;;;24.20;10.30;;;;;;;-0.98;75.88;97665.79;103286;1291;97835;-67
2022/12/15 01:59:39;;;;;;;23.00;10.80;;;;;;;-0.94;75.86;97671.63;103336;1294;98771;-66
2022/12/15 02:02:07;;;;;;;27.00;12.00;;;;;;;-0.90;75.89;97674.58;103506;1299;111164;-66
2022/12/15 02:04:40;;;;;;;24.50;11.80;;;;;;;-0.85;75.83;97669.31;103504;1302;98543;-66
2022/12/15 02:07:16;;;;;;;24.60;11.90;;;;;;;-0.82;75.88;97661.84;103341;1293;108210;-68
2022/12/15 02:09:49;;;;;;;23.70;10.10;;;;;;;-0.79;75.79;97665.17;103518;1291;98020;-65
2022/12/15 02:12:36;;;;;;;;;;;;;;;-0.77;75.82;97665.96;103384;1284;98042;-65
2022/12/15 02:15:30;;;;;;;24.40;11.10;;;;;;;-0.76;75.91;97658.08;103534;1295;111777;-66
2022/12/15 02:18:13;;;;;;;;;;;;;;;-0.73;75.87;97658.63;103392;1289;98416;-66
2022/12/15 02:20:44;;;;;;;24.30;10.90;;;;;;;-0.73;75.87;97660.88;103392;1299;108167;-67
2022/12/15 02:23:27;;;;;;;19.80;8.40;;;;;;;-0.71;75.87;97661.00;103502;1291;97975;-66
2022/12/15 02:26:24;;;;;;;24.90;11.40;;;;;;;-0.68;75.93;97668.68;103519;1299;95345;-66
2022/12/15 02:29:14;;;;;;;24.50;11.70;;;;;;;-0.65;75.90;97669.06;103414;1291;111891;-66
2022/12/15 02:31:51;;;;;;;25.60;11.50;;;;;;;-0.63;75.82;97666.15;103433;1292;97650;-66
2022/12/15 02:34:58;;;;;;;28.20;11.80;;;;;;;-0.61;75.94;97668.33;103263;1307;107492;-65
2022/12/15 02:37:41;;;;;;;27.50;12.30;;;;;;;-0.59;75.86;97675.70;103328;1294;98053;-66
2022/12/15 02:40:12;;;;;;;24.30;11.00;;;;;;;-0.58;75.92;97682.80;103511;1296;98023;-65
2022/12/15 02:42:50;;;;;;;24.80;11.10;;;;;;;-0.56;75.89;97686.71;103422;1298;111393;-66
2022/12/15 02:45:31;;;;;;;25.80;11.70;;;;;;;-0.57;75.99;97679.24;103409;1299;95486;-66
2022/12/15 02:48:33;;;;;;;26.90;12.40;;;;;;;-0.55;75.87;97690.84;103375;1300;107651;-65
2022/12/15 02:51:04;;;;;;;26.00;11.10;;;;;;;-0.54;76.00;97687.98;103552;1291;97866;-66
2022/12/15 02:53:37;;;;;;;;;;;;;;;-0.53;76.04;97690.54;103584;1298;96952;-66
2022/12/15 02:56:15;;;;;;;25.50;11.40;;;;;;;-0.54;75.89;97698.80;103403;1297;112256;-67
2022/12/15 02:58:55;;;;;;;27.50;11.40;;;;;;;-0.54;75.87;97698.77;103405;1300;97878;-67
2022/12/15 03:01:49;;;;;;;27.60;11.60;;;;;;;-0.52;76.00;97696.81;103397;1297;108248;-68
2022/12/15 03:04:22;;;;;;;27.10;11.50;;;;;;;-0.51;75.96;97699.17;103254;1296;98050;-67
2022/12/15 03:07:02;;;;;;;27.20;12.10;;;;;;;-0.50;76.03;97704.49;103414;1295;98038;-67
2022/12/15 03:09:34;;;;;;;25.00;11.10;;;;;;;-0.47;75.97;97709.79;103503;1298;111215;-65
2022/12/15 03:12:07;;;;;;;23.50;10.10;;;;;;;-0.46;76.03;97710.76;103542;1297;98979;-66
2022/12/15 03:14:35;;;;;;;26.40;12.60;;;;;;;-0.44;76.01;97713.98;103571;1297;108211;-65
2022/12/15 03:17:05;;;;;;;28.50;12.90;;;;;;;-0.42;75.86;97713.90;103396;1302;98075;-66
2022/12/15 03:19:42;;;;;;;27.10;12.90;;;;;;;-0.41;76.08;97704.77;103564;1298;97902;-66
2022/12/15 03:22:10;;;;;;;27.80;12.60;;;;;;;-0.39;75.91;97705.38;103511;1293;111901;-67
2022/12/15 03:24:39;;;;;;;23.20;11.00;;;;;;;-0.37;76.11;97704.39;103418;1291;96330;-68
2022/12/15 03:27:08;;;;;;;25.20;11.80;;;;;;;-0.35;76.05;97708.48;103503;1301;108166;-68
2022/12/15 03:29:40;;;;;;;25.60;11.30;;;;;;;-0.35;75.76;97709.70;103475;1302;98572;-69
2022/12/15 03:32:08;;;;;;;25.00;11.60;;;;;;;-0.35;76.04;97712.46;103493;1292;97870;-68
2022/12/15 03:34:44;;;;;;;24.00;12.10;;;;;;;-0.35;75.89;97718.56;103501;1298;114512;-67
2022/12/15 03:37:12;;;;;;;29.40;13.70;;;;;;;-0.35;75.81;97717.87;103416;1297;95160;-66
2022/12/15 03:39:40;;;;;;;29.50;13.20;;;;;;;-0.35;76.04;97720.85;103388;1298;108301;-66
2022/12/15 03:42:08;;;;;;;26.90;13.20;;;;;;;-0.33;75.83;97722.34;103443;1298;97931;-66
2022/12/15 03:44:40;;;;;;;26.60;12.80;;;;;;;-0.33;75.88;97727.16;103566;1298;97901;-68
2022/12/15 03:47:08;;;;;;;27.60;13.00;;;;;;;-0.32;75.98;97731.64;103466;1290;111423;-67
2022/12/15 03:49:36;;;;;;;27.50;13.20;;;;;;;-0.32;75.94;97736.53;103425;1296;97984;-68
2022/12/15 03:52:04;;;;;;;29.20;14.60;;;;;;;-0.33;75.90;97738.14;103407;1295;107929;-64
2022/12/15 03:54:32;;;;;;;25.50;12.30;;;;;;;-0.32;75.96;97738.44;103391;1300;96941;-67
2022/12/15 03:56:59;;;;;;;25.40;12.50;;;;;;;-0.31;75.96;97743.29;103437;1299;97832;-65
2022/12/15 03:59:31;;;;;;;27.60;13.90;;;;;;;-0.31;75.98;97749.58;103461;1297;111667;-65
2022/12/15 04:01:59;;;;;;;26.20;12.30;;;;;;;-0.32;75.85;97750.31;103539;1297;96562;-67
2022/12/15 04:04:31;;;;;;;26.90;12.70;;;;;;;-0.32;76.06;97759.89;103520;1295;108136;-67
2022/12/15 04:06:59;;;;;;;26.30;13.00;;;;;;;-0.31;75.94;97766.81;103405;1299;97871;-65
2022/12/15 04:09:30;;;;;;;28.90;13.90;;;;;;;-0.30;76.00;97768.16;103474;1299;97883;-66
2022/12/15 04:11:58;;;;;;;27.50;12.40;;;;;;;-0.28;75.98;97770.71;103347;1291;111836;-66
2022/12/15 04:14:33;;;;;;;29.40;13.90;;;;;;;-0.28;75.89;97773.30;103452;1290;95121;-66
2022/12/15 04:17:00;;;;;;;27.20;13.10;;;;;;;-0.28;75.85;97779.42;103486;1291;108100;-65
2022/12/15 04:22:24;;;;;;;28.30;11.90;;;;;;;-0.28;75.94;97783.58;103496;1297;96962;-66
2022/12/15 05:32:43;;;;;;;28.10;14.20;;;;;;;-0.27;76.21;97875.51;103457;1299;96933;-65
2022/12/15 05:35:12;;;;;;;29.40;15.10;;;;;;;-0.28;76.24;97876.94;103448;1297;111855;-66
2022/12/15 05:37:40;;;;;;;31.30;14.80;;;;;;;-0.27;76.24;97882.98;103428;1300;97866;-66
2022/12/15 05:40:12;;;;;;;32.40;16.00;;;;;;;-0.28;76.19;97882.17;103410;1298;108061;-66
2022/12/15 05:42:40;;;;;;;30.10;14.90;;;;;;;-0.28;76.19;97889.12;103481;1297;96264;-66
2022/12/15 05:45:10;;;;;;;31.70;16.30;;;;;;;-0.27;76.04;97898.17;103502;1299;98456;-66
2022/12/15 05:47:38;;;;;;;30.40;15.60;;;;;;;-0.26;76.32;97906.48;103477;1297;111797;-65
2022/12/15 05:50:09;;;;;;;30.60;15.80;;;;;;;-0.24;76.27;97912.33;103467;1298;97882;-66
2022/12/15 05:52:37;;;;;;;31.30;15.20;;;;;;;-0.23;76.22;97920.79;103249;1297;107841;-65
2022/12/15 05:55:08;;;;;;;31.40;16.00;;;;;;;-0.23;76.15;97926.38;103419;1299;97883;-66
2022/12/15 05:57:36;;;;;;;33.50;15.40;;;;;;;-0.23;76.19;97928.66;103542;1300;97862;-66
2022/12/15 06:00:11;;;;;;;31.90;14.70;;;;;;;-0.26;76.15;97934.51;103518;1298;111674;-67
2022/12/15 06:02:39;;;;;;;32.90;15.50;;;;;;;-0.27;76.11;97937.20;103496;1297;97374;-66
2022/12/15 06:05:10;;;;;;;31.20;14.80;;;;;;;-0.29;76.25;97943.38;103479;1297;108053;-68
2022/12/15 06:07:38;;;;;;;30.70;15.30;;;;;;;-0.30;76.19;97947.06;103436;1296;98622;-68
2022/12/15 06:10:09;;;;;;;31.30;16.30;;;;;;;-0.30;76.14;97947.77;103382;1301;97966;-68
2022/12/15 06:12:38;;;;;;;29.80;16.10;;;;;;;-0.30;76.30;97949.53;103433;1292;111834;-68
2022/12/15 06:15:09;;;;;;;34.50;16.50;;;;;;;-0.30;76.31;97960.86;103450;1297;95235;-67
2022/12/15 06:17:36;;;;;;;33.90;16.30;;;;;;;-0.30;76.19;97960.33;103495;1297;108103;-68
2022/12/15 06:20:08;;;;;;;36.90;16.80;;;;;;;-0.31;76.34;97961.06;103466;1298;96336;-67
2022/12/15 06:22:36;;;;;;;37.30;17.60;;;;;;;-0.31;76.24;97966.64;103463;1298;98009;-68
2022/12/15 06:25:08;;;;;;;29.30;14.80;;;;;;;-0.31;76.22;97972.53;103424;1298;111329;-68
2022/12/15 06:27:36;;;;;;;35.70;16.10;;;;;;;-0.32;76.30;97977.11;103501;1291;95119;-68
2022/12/15 06:30:08;;;;;;;32.00;15.90;;;;;;;-0.31;76.28;97985.98;103464;1298;107692;-68
2022/12/15 06:32:36;;;;;;;33.10;16.30;;;;;;;-0.31;76.39;97992.41;103360;1302;98386;-67
2022/12/15 06:35:08;;;;;;;32.10;15.80;;;;;;;-0.30;76.45;97997.41;103553;1291;98390;-68
2022/12/15 06:37:36;;;;;;;32.20;15.40;;;;;;;-0.29;76.24;98000.35;103496;1298;111741;-68
2022/12/15 06:40:09;;;;;;;31.40;15.70;;;;;;;-0.28;76.38;98004.34;103506;1297;97869;-67
2022/12/15 06:42:37;;;;;;;30.40;15.30;;;;;;;-0.28;76.46;98007.98;103557;1281;108236;-66
2022/12/15 06:45:09;;;;;;;30.60;15.00;;;;;;;-0.28;76.33;98015.13;103404;1298;98016;-67
2022/12/15 06:47:37;;;;;;;30.40;15.50;;;;;;;-0.29;76.45;98021.63;103356;1301;97784;-68
2022/12/15 06:50:10;;;;;;;33.40;14.50;;;;;;;-0.31;76.34;98029.36;103380;1298;111841;-67
2022/12/15 06:52:38;;;;;;;31.30;15.50;;;;;;;-0.35;76.33;98035.61;103380;1298;96443;-70
2022/12/15 06:55:11;;;;;;;31.70;16.50;;;;;;;-0.37;76.35;98035.89;103382;1299;106163;-68
2022/12/15 06:57:39;;;;;;;29.70;14.40;;;;;;;-0.40;76.40;98037.23;103447;1298;97911;-67
2022/12/15 07:00:14;;;;;;;33.00;16.50;;;;;;;-0.42;76.28;98045.90;103481;1298;97876;-66
2022/12/15 07:02:42;;;;;;;31.60;16.00;;;;;;;-0.44;76.34;98050.35;103464;1291;111913;-66
2022/12/15 07:05:23;;;;;;;28.80;14.00;;;;;;;-0.47;76.42;98052.53;103498;1297;97884;-66
2022/12/15 07:07:51;;;;;;;29.30;14.50;;;;;;;-0.49;76.51;98053.48;103449;1298;108038;-67
2022/12/15 07:10:22;;;;;;;29.70;14.10;;;;;;;-0.50;76.52;98054.92;103389;1299;97841;-67
2022/12/15 07:12:50;;;;;;;31.20;15.10;;;;;;;-0.52;76.43;98063.73;103493;1298;96484;-69
2022/12/15 07:15:18;;;;;;;32.50;15.70;;;;;;;-0.54;76.39;98069.89;103487;1298;111752;-68
2022/12/15 07:17:47;;;;;;;31.10;15.20;;;;;;;-0.54;76.55;98071.45;103521;1291;97891;-67
2022/12/15 07:20:17;;;;;;;31.40;15.30;;;;;;;-0.53;76.53;98071.40;103429;1298;107878;-68
2022/12/15 07:22:57;;;;;;;32.30;15.20;;;;;;;-0.50;76.53;98070.95;103397;1291;98054;-69
2022/12/15 07:25:27;;;;;;;34.80;16.20;;;;;;;-0.48;76.42;98081.12;103372;1291;97968;-68
2022/12/15 07:27:55;;;;;;;31.70;15.50;;;;;;;-0.44;76.48;98084.10;103455;1301;111734;-68
2022/12/15 07:30:23;;;;;;;30.00;15.70;;;;;;;-0.41;76.51;98085.73;103436;1291;97965;-66
2022/12/15 07:32:55;;;;;;;31.40;14.90;;;;;;;-0.39;76.48;98093.63;103396;1291;106651;-68
2022/12/15 07:35:28;;;;;;;29.60;15.20;;;;;;;-0.38;76.51;98097.23;103399;1291;98639;-68
2022/12/15 07:38:04;;;;;;;31.40;15.10;;;;;;;-0.37;76.70;98104.16;103496;1297;97948;-67
2022/12/15 07:40:36;;;;;;;31.80;14.20;;;;;;;-0.35;76.61;98107.92;103494;1292;110453;-67
2022/12/15 07:43:04;;;;;;;32.60;15.90;;;;;;;-0.34;76.65;98115.73;103541;1297;95855;-67
2022/12/15 07:45:32;;;;;;;33.50;15.70;;;;;;;-0.34;76.55;98123.39;103467;1299;107763;-68
2022/12/15 07:48:00;;;;;;;32.10;15.50;;;;;;;-0.34;76.50;98131.42;103390;1298;97951;-68
2022/12/15 07:50:29;;;;;;;30.30;15.20;;;;;;;-0.33;76.47;98129.44;103393;1295;97897;-67
2022/12/15 07:53:00;;;;;;;32.80;15.40;;;;;;;-0.31;76.64;98134.93;103436;1298;111894;-67
2022/12/15 07:55:28;;;;;;;34.70;16.60;;;;;;;-0.29;76.59;98140.95;103418;1291;97868;-68
2022/12/15 07:58:16;;;;;;;29.60;14.40;;;;;;;-0.27;76.53;98154.60;103450;1292;107403;-69
2022/12/15 08:00:44;;;;;;;35.60;16.80;;;;;;;-0.26;76.61;98161.19;103551;1299;98720;-66
2022/12/15 08:03:19;;;;;;;31.80;16.50;;;;;;;-0.24;76.64;98166.02;103551;1291;97906;-66
2022/12/15 08:05:52;;;;;;;32.30;15.40;;;;;;;-0.24;76.50;98171.79;103424;1299;110569;-67
2022/12/15 08:08:34;;;;;;;34.10;15.80;;;;;;;-0.24;76.46;98171.23;103361;1298;97870;-67
2022/12/15 08:11:13;;;;;;;33.80;15.90;;;;;;;-0.22;76.49;98177.96;104363;1298;108117;-66
2022/12/15 08:13:45;;;;;;;30.00;15.40;;;;;;;-0.19;76.60;98187.58;103452;1298;97958;-66
2022/12/15 08:16:35;;;;;;;31.90;16.10;;;;;;;-0.18;76.44;98190.46;103377;1294;97912;-66
2022/12/15 08:19:15;;;;;;;34.20;16.90;;;;;;;-0.16;76.46;98196.66;103433;1302;111087;-66
2022/12/15 08:21:48;;;;;;;33.30;16.50;;;;;;;-0.12;76.57;98201.56;103451;1286;97874;-66
2022/12/15 08:24:20;;;;;;;35.40;16.80;;;;;;;-0.09;76.53;98205.10;103402;1299;107541;-66
2022/12/15 08:26:48;;;;;;;38.40;18.80;;;;;;;-0.07;76.37;98203.07;103422;1291;98310;-66
2022/12/15 08:29:20;;;;;;;38.00;18.60;;;;;;;-0.04;76.52;98202.62;103535;1298;98002;-65
2022/12/15 08:32:08;;;;;;;36.70;17.80;;;;;;;-0.02;76.53;98201.29;103465;1302;110211;-67
2022/12/15 08:34:41;;;;;;;36.60;19.10;;;;;;;0.00;76.57;98206.08;103540;1294;95469;-66
2022/12/15 08:37:15;;;;;;;39.60;19.30;;;;;;;0.04;76.40;98212.21;103545;1291;107539;-66
2022/12/15 08:39:52;;;;;;;38.00;19.20;;;;;;;0.05;76.39;98216.67;103439;1291;97876;-66
2022/12/15 08:42:21;;;;;;;40.60;20.40;;;;;;;0.08;76.42;98218.83;103534;1292;98435;-67
2022/12/15 08:44:49;;;;;;;40.30;18.80;;;;;;;0.10;76.28;98222.59;103513;1292;112182;-66
2022/12/15 08:47:17;;;;;;;45.30;20.50;;;;;;;0.11;76.47;98228.13;103494;1290;96304;-66
2022/12/15 08:49:44;;;;;;;40.90;20.40;;;;;;;0.13;76.44;98230.14;103514;1298;107798;-66
2022/12/15 08:52:16;;;;;;;42.40;20.80;;;;;;;0.15;76.38;98230.20;103515;1291;98460;-66
2022/12/15 08:54:44;;;;;;;42.40;20.80;;;;;;;0.17;76.43;98235.52;103324;1302;98022;-66
2022/12/15 08:57:12;;;;;;;39.90;21.90;;;;;;;0.20;76.42;98234.37;103432;1285;111779;-66
2022/12/15 08:59:42;;;;;;;42.60;21.60;;;;;;;0.22;76.48;98240.02;103487;1299;97994;-66
2022/12/15 09:02:15;;;;;;;44.70;21.40;;;;;;;0.24;76.47;98247.59;103441;1293;107898;-66
2022/12/15 09:04:44;;;;;;;40.70;20.00;;;;;;;0.27;76.49;98247.14;103464;1296;95195;-66
2022/12/15 09:07:18;;;;;;;48.20;23.70;;;;;;;0.28;76.41;98242.70;103585;1291;97956;-67
2022/12/15 09:09:49;;;;;;;43.90;22.90;;;;;;;0.30;76.44;98247.00;103515;1298;111936;-66
2022/12/15 09:12:17;;;;;;;47.50;24.10;;;;;;;0.33;76.52;98248.80;103443;1291;98003;-66
2022/12/15 09:14:45;;;;;;;46.00;22.70;;;;;;;0.34;76.35;98252.74;103499;1292;107959;-64
2022/12/15 09:17:17;;;;;;;44.50;23.20;;;;;;;0.34;76.37;98257.97;103401;1291;97501;-66
2022/12/15 09:19:49;;;;;;;48.50;23.20;;;;;;;0.36;76.34;98259.11;103565;1291;97909;-66
2022/12/15 09:22:20;;;;;;;44.50;22.30;;;;;;;0.39;76.41;98265.27;103455;1291;111986;-66
2022/12/15 09:24:49;;;;;;;43.40;21.80;;;;;;;0.42;76.35;98270.69;103538;1291;97877;-67
2022/12/15 09:27:21;;;;;;;46.00;22.80;;;;;;;0.45;76.47;98277.04;103510;1297;107488;-68
2022/12/15 09:29:51;;;;;;;45.10;23.60;;;;;;;0.47;76.27;98277.49;103456;1293;97831;-67
2022/12/15 09:32:19;;;;;;;46.40;23.10;;;;;;;0.50;76.67;98276.32;103485;1291;97857;-67
2022/12/15 09:34:52;;;;;;;48.70;22.70;;;;;;;0.53;76.41;98276.69;103541;1291;111400;-66
2022/12/15 09:37:20;;;;;;;47.20;23.80;;;;;;;0.56;76.59;98280.23;103552;1299;97873;-66
2022/12/15 09:39:48;;;;;;;48.80;22.30;;;;;;;0.59;76.62;98280.98;103481;1292;108285;-68
2022/12/15 09:42:27;;;;;;;45.70;23.20;;;;;;;0.62;76.21;98280.48;103383;1298;98526;-66
2022/12/15 09:45:11;;;;;;;49.60;23.40;;;;;;;0.64;76.39;98274.61;103549;1299;97945;-66
2022/12/15 09:47:56;;;;;;;47.50;22.70;;;;;;;0.63;76.34;98276.41;103484;1299;111622;-67
2022/12/15 09:50:39;;;;;;;47.60;24.40;;;;;;;0.65;76.34;98271.98;103541;1298;98308;-66
2022/12/15 09:53:17;;;;;;;41.60;22.00;;;;;;;0.66;76.37;98269.29;103507;1292;107523;-67
2022/12/15 09:56:20;;;;;;;46.20;24.20;;;;;;;0.69;76.23;98275.11;103463;1292;97890;-66
2022/12/15 09:59:26;;;;;;;45.50;24.50;;;;;;;0.72;76.35;98279.69;103518;1292;97840;-66
2022/12/15 10:02:20;;;;;;;42.40;22.60;;;;;;;0.72;76.24;98282.63;103105;1297;112022;-66
2022/12/15 10:05:27;;;;;;;46.90;23.50;;;;;;;0.70;76.45;98287.96;103473;1300;97863;-66
2022/12/15 10:08:27;;;;;;;45.30;22.50;;;;;;;0.68;76.20;98286.31;103437;1292;108195;-66
2022/12/15 10:11:02;;;;;;;47.40;24.50;;;;;;;0.66;76.14;98285.86;103293;1298;98015;-66
2022/12/15 10:13:44;;;;;;;48.10;23.60;;;;;;;0.65;76.05;98277.53;103300;1302;98111;-66
2022/12/15 10:16:47;;;;;;;47.20;24.00;;;;;;;0.66;76.12;98280.98;103422;1285;111460;-66
2022/12/15 10:19:45;;;;;;;50.90;25.60;;;;;;;0.66;76.05;98282.58;103412;1295;95176;-67
2022/12/15 10:22:38;;;;;;;49.20;26.20;;;;;;;0.67;76.25;98286.87;103506;1292;108428;-66
2022/12/15 10:25:24;;;;;;;48.80;24.30;;;;;;;0.68;76.00;98282.49;103379;1301;95550;-67
2022/12/15 10:28:16;;;;;;;51.50;26.30;;;;;;;0.68;76.20;98277.95;103510;1299;97889;-65
2022/12/15 10:31:01;;;;;;;50.50;25.50;;;;;;;0.66;75.70;98289.38;103527;1295;111617;-64
2022/12/15 10:33:41;;;;;;;47.60;25.50;;;;;;;0.63;76.00;98300.14;103571;1295;97864;-66
2022/12/15 10:36:19;;;;;;;46.40;25.70;;;;;;;0.63;75.90;98298.59;103462;1299;108025;-65
2022/12/15 10:38:49;;;;;;;48.90;25.20;;;;;;;0.58;76.02;98296.87;103478;1297;97817;-66
2022/12/15 10:41:30;;;;;;;47.10;25.40;;;;;;;0.52;75.77;98300.83;103462;1291;97951;-67
2022/12/15 10:43:58;;;;;;;44.40;24.50;;;;;;;0.45;75.36;98307.56;103419;1284;109611;-68
2022/12/15 10:46:30;;;;;;;48.40;24.60;;;;;;;0.40;75.67;98307.42;103497;1291;97926;-69
2022/12/15 10:49:06;;;;;;;48.40;26.20;;;;;;;0.40;75.60;98311.45;103364;1298;110521;-65
2022/12/15 10:51:59;;;;;;;52.80;26.40;;;;;;;0.44;75.89;98301.69;103503;1299;98484;-66
2022/12/15 10:54:47;;;;;;;52.10;29.10;;;;;;;0.44;75.77;98308.83;103525;1291;95102;-66
2022/12/15 10:57:22;;;;;;;52.30;28.10;;;;;;;0.42;75.74;98313.95;103332;1291;111720;-66
2022/12/15 10:59:51;;;;;;;51.10;27.60;;;;;;;0.44;75.65;98314.40;103791;1292;96875;-66
2022/12/15 11:02:33;;;;;;;56.50;28.90;;;;;;;0.45;75.64;98311.58;103416;1291;108122;-65
2022/12/15 11:05:15;;;;;;;50.60;26.00;;;;;;;0.46;75.66;98316.60;103334;1294;95234;-66
2022/12/15 11:07:51;;;;;;;53.70;28.40;;;;;;;0.44;75.59;98319.64;103467;1299;97957;-65
2022/12/15 11:12:50;;;;;;;54.10;27.60;;;;;;;0.37;75.28;98326.39;103275;1288;111628;-65
2022/12/15 11:13:25;;;;;;;59.40;31.90;;;;;;;0.36;75.61;98314.60;103455;1292;95455;-65
2022/12/15 11:16:15;;;;;;;60.30;31.20;;;;;;;0.32;75.64;98314.77;103366;1293;107474;-65
2022/12/15 11:19:09;;;;;;;59.20;31.40;;;;;;;0.31;75.54;98321.77;103497;1295;97951;-65
2022/12/15 11:21:55;;;;;;;58.30;31.70;;;;;;;0.31;75.81;98322.83;103390;1292;95215;-67
2022/12/15 11:24:46;;;;;;;55.80;30.30;;;;;;;0.20;75.58;98332.48;103431;1294;111148;-67
2022/12/15 11:27:23;;;;;;;57.70;29.00;;;;;;;0.09;75.53;98340.65;103444;1285;96280;-66
2022/12/15 11:30:09;;;;;;;56.30;30.60;;;;;;;0.04;75.39;98345.87;103453;1291;107978;-66
2022/12/15 11:32:46;;;;;;;54.50;29.20;;;;;;;-0.02;75.22;98344.58;103462;1291;97847;-65
2022/12/15 11:35:44;;;;;;;55.40;31.00;;;;;;;-0.05;75.37;98345.93;104372;1292;97882;-66
2022/12/15 11:38:48;;;;;;;59.70;31.70;;;;;;;-0.05;75.49;98363.02;103344;1295;111225;-66
2022/12/15 11:41:37;;;;;;;55.20;31.00;;;;;;;-0.07;75.42;98366.41;103465;1294;97982;-66
2022/12/15 11:44:23;;;;;;;56.90;32.00;;;;;;;-0.06;75.45;98371.08;103793;1297;108039;-66
2022/12/15 11:47:00;;;;;;;63.70;33.40;;;;;;;-0.03;75.60;98373.75;103249;1294;98026;-67
2022/12/15 11:50:03;;;;;;;65.90;32.80;;;;;;;-0.03;75.50;98367.61;103474;1291;95225;-67
2022/12/15 11:52:57;;;;;;;57.80;31.80;;;;;;;-0.03;75.51;98364.13;103189;1299;111595;-66
2022/12/15 11:55:56;;;;;;;62.70;33.00;;;;;;;-0.02;75.46;98367.06;103469;1298;97980;-66
2022/12/15 11:58:42;;;;;;;57.10;32.20;;;;;;;-0.02;75.53;98372.29;103400;1293;108695;-66
2022/12/15 12:01:38;;;;;;;65.10;34.70;;;;;;;-0.01;75.54;98368.58;103466;1298;98065;-67
2022/12/15 12:04:26;;;;;;;66.60;34.40;;;;;;;-0.02;75.52;98376.66;103533;1292;97907;-67
2022/12/15 12:07:22;;;;;;;70.70;36.80;;;;;;;-0.02;75.42;98388.66;103477;1297;111861;-67
2022/12/15 12:10:26;;;;;;;63.20;35.00;;;;;;;-0.03;75.33;98399.34;103489;1292;97990;-65
2022/12/15 12:13:17;;;;;;;67.20;36.40;;;;;;;-0.02;75.57;98402.98;103467;1294;107667;-65
2022/12/15 12:16:08;;;;;;;65.80;35.80;;;;;;;-0.02;75.30;98403.67;103436;1291;97948;-67
2022/12/15 12:19:18;;;;;;;69.00;38.10;;;;;;;-0.03;75.37;98395.86;103386;1300;97840;-67
2022/12/15 12:21:55;;;;;;;65.60;36.80;;;;;;;-0.03;75.37;98380.73;103494;1302;111139;-66
2022/12/15 12:24:47;;;;;;;74.80;41.00;;;;;;;-0.05;75.41;98389.33;103495;1292;98045;-66
2022/12/15 12:27:52;;;;;;;73.20;37.10;;;;;;;-0.07;75.43;98386.79;103469;1292;107518;-65
2022/12/15 12:30:33;;;;;;;72.90;39.60;;;;;;;-0.10;75.36;98385.70;103488;1292;97938;-65
2022/12/15 12:33:01;;;;;;;66.70;35.90;;;;;;;-0.11;75.48;98384.84;103511;1295;95296;-66
2022/12/15 12:35:55;;;;;;;68.10;36.90;;;;;;;-0.10;75.16;98391.27;103555;1295;111701;-65
2022/12/15 12:38:54;;;;;;;68.40;35.70;;;;;;;-0.09;75.51;98395.04;103505;1291;97916;-67
2022/12/15 12:41:26;;;;;;;67.20;35.40;;;;;;;-0.07;75.57;98394.66;103549;1288;107541;-66
2022/12/15 12:44:12;;;;;;;74.10;39.50;;;;;;;-0.08;75.32;98400.27;103477;1292;95222;-67
2022/12/15 12:46:53;;;;;;;72.40;37.60;;;;;;;-0.12;75.30;98394.98;103553;1291;98402;-65
2022/12/15 12:49:36;;;;;;;79.70;39.40;;;;;;;-0.16;75.28;98408.73;103314;1301;111072;-67
2022/12/15 12:52:25;;;;;;;69.60;38.10;;;;;;;-0.14;75.25;98412.66;103427;1298;97963;-66
2022/12/15 12:55:19;;;;;;;71.70;37.90;;;;;;;-0.18;75.30;98409.52;103475;1298;107999;-66
2022/12/15 12:57:53;;;;;;;74.60;38.20;;;;;;;-0.19;75.37;98415.84;103431;1291;97980;-68
2022/12/15 13:00:26;;;;;;;57.40;32.30;;;;;;;-0.22;75.29;98419.45;103304;1302;97965;-66
2022/12/15 13:02:58;;;;;;;70.90;37.50;;;;;;;-0.28;75.21;98420.72;103419;1292;111200;-66
2022/12/15 13:05:36;;;;;;;72.30;35.80;;;;;;;-0.30;75.32;98423.94;103411;1285;96985;-67
2022/12/15 13:08:04;;;;;;;69.20;36.60;;;;;;;-0.36;75.10;98427.45;103394;1294;107783;-68
2022/12/15 13:10:46;;;;;;;70.10;34.80;;;;;;;-0.41;75.14;98432.02;103505;1294;97977;-66
2022/12/15 13:13:30;;;;;;;68.60;36.10;;;;;;;-0.43;75.11;98431.39;103517;1294;97919;-66
2022/12/15 13:16:17;;;;;;;72.80;39.50;;;;;;;-0.40;75.23;98432.31;103450;1298;112085;-67
2022/12/15 13:19:10;;;;;;;69.50;37.00;;;;;;;-0.39;75.28;98434.56;103524;1298;97970;-67
2022/12/15 13:21:40;;;;;;;65.10;36.60;;;;;;;-0.41;75.21;98442.31;103431;1298;106595;-67
2022/12/15 13:24:39;;;;;;;68.10;35.20;;;;;;;-0.43;75.18;98443.79;103408;1301;98029;-68
2022/12/15 13:27:15;;;;;;;72.30;38.90;;;;;;;-0.45;75.22;98441.26;103289;1298;97031;-66
2022/12/15 13:29:58;;;;;;;68.00;39.50;;;;;;;-0.49;75.07;98431.98;103240;1304;111757;-66
2022/12/15 13:33:14;;;;;;;75.50;39.50;;;;;;;-0.47;75.25;98429.47;103459;1294;98522;-67
2022/12/15 13:35:45;;;;;;;74.80;38.80;;;;;;;-0.47;75.14;98429.65;103448;1301;106278;-67
2022/12/15 13:38:20;;;;;;;75.80;40.30;;;;;;;-0.45;75.24;98434.77;103502;1292;97927;-68
2022/12/15 13:40:48;;;;;;;55.00;30.30;;;;;;;-0.43;75.21;98448.66;103320;1278;97963;-67
2022/12/15 13:43:45;;;;;;;78.40;41.80;;;;;;;-0.47;75.22;98453.30;103397;1294;111732;-68
2022/12/15 13:46:29;;;;;;;67.90;34.60;;;;;;;-0.47;75.19;98454.73;103313;1304;98320;-67
2022/12/15 13:49:24;;;;;;;81.20;41.00;;;;;;;-0.45;75.18;98452.55;103462;1301;107586;-67
2022/12/15 13:52:05;;;;;;;78.60;40.90;;;;;;;-0.44;75.21;98455.67;103454;1295;97818;-67
2022/12/15 13:54:40;;;;;;;79.90;43.10;;;;;;;-0.41;75.19;98458.52;103499;1297;95139;-66
2022/12/15 13:57:18;;;;;;;77.70;41.50;;;;;;;-0.41;75.24;98466.33;103320;1294;111071;-66
2022/12/15 13:59:55;;;;;;;77.10;40.70;;;;;;;-0.38;75.27;98463.27;103536;1291;98419;-65
2022/12/15 14:02:34;;;;;;;72.90;40.30;;;;;;;-0.35;75.26;98465.25;103254;1294;108105;-66
2022/12/15 14:05:21;;;;;;;72.50;38.50;;;;;;;-0.34;75.20;98467.13;103445;1292;95198;-68
2022/12/15 14:07:51;;;;;;;73.90;41.30;;;;;;;-0.33;75.23;98470.41;103497;1292;97880;-67
2022/12/15 14:10:56;;;;;;;76.60;39.90;;;;;;;-0.31;75.29;98485.48;103471;1297;111797;-66
2022/12/15 14:13:34;;;;;;;79.00;41.20;;;;;;;-0.31;75.11;98483.73;103513;1292;95590;-67
2022/12/15 14:16:21;;;;;;;74.40;40.80;;;;;;;-0.31;75.14;98489.46;103436;1294;106575;-67